Time;durP1;ratioP1;P1;durP2;ratioP2;P2;SDS_P1;SDS_P2;PMS_P1;PMS_P2;Temp;Humidity;BMP_temperature;BMP_pressure;BME280_temperature;BME280_humidity;BME280_pressure;Samples;Min_cycle;Max_cycle;Signal;HPM_P1;HPM_P2
2023/06/11 00:01:30;;;;;;;6.17;4.57;;;;;;;;;;5046233;28;20265;-64
2023/06/11 00:03:56;;;;;;;5.67;4.17;;;;;;;;;;5026597;28;20017;-64
2023/06/11 00:06:22;;;;;;;5.03;4.10;;;;;;;;;;5029840;28;20049;-67
2023/06/11 00:08:48;;;;;;;6.20;4.05;;;;;;;;;;5025109;28;20033;-66
2023/06/11 00:11:13;;;;;;;6.05;4.32;;;;;;;;;;5025195;28;20415;-67
2023/06/11 00:13:38;;;;;;;6.77;4.40;;;;;;;;;;5034276;28;20494;-67
2023/06/11 00:16:04;;;;;;;4.67;4.07;;;;;;;;;;5031313;28;20445;-67
2023/06/11 00:18:29;;;;;;;6.55;4.30;;;;;;;;;;5044108;28;20435;-65
2023/06/11 00:20:56;;;;;;;5.60;4.23;;;;;;;;;;5022791;28;20090;-66
2023/06/11 00:23:22;;;;;;;4.57;4.07;;;;;;;;;;5037275;28;20351;-67
2023/06/11 00:25:47;;;;;;;5.65;4.53;;;;;;;;;;5025099;28;20029;-69
2023/06/11 00:28:12;;;;;;;5.33;3.87;;;;;;;;;;4991052;28;20028;-68
2023/06/11 00:30:37;;;;;;;5.93;4.13;;;;;;;;;;5025793;28;20293;-69
2023/06/11 00:33:03;;;;;;;5.80;3.77;;;;;;;;;;5011748;28;20310;-67
2023/06/11 00:35:28;;;;;;;6.13;4.23;;;;;;;;;;5038639;28;20311;-66
2023/06/11 00:37:55;;;;;;;6.63;4.17;;;;;;;;;;5039009;28;20719;-67
2023/06/11 00:40:20;;;;;;;5.80;4.60;;;;;;;;;;5044831;28;20687;-66
2023/06/11 00:42:49;;;;;;;11.00;4.15;;;;;;;;;;5022598;28;20112;-68
2023/06/11 00:45:15;;;;;;;6.75;4.07;;;;;;;;;;5030591;28;20484;-70
2023/06/11 00:47:40;;;;;;;6.32;4.38;;;;;;;;;;5009861;28;20082;-64
2023/06/11 00:50:06;;;;;;;4.70;4.17;;;;;;;;;;5009470;28;20061;-70
2023/06/11 00:52:31;;;;;;;5.85;4.47;;;;;;;;;;5027565;28;20279;-67
2023/06/11 00:54:57;;;;;;;6.17;3.87;;;;;;;;;;5031871;28;20044;-67
2023/06/11 00:57:25;;;;;;;5.05;3.97;;;;;;;;;;5037180;28;20398;-66
2023/06/11 00:59:53;;;;;;;5.65;4.05;;;;;;;;;;5026535;28;20658;-63
2023/06/11 01:02:24;;;;;;;4.97;3.90;;;;;;;;;;5027789;28;20112;-69
2023/06/11 01:04:51;;;;;;;5.28;3.75;;;;;;;;;;5031116;28;20041;-69
2023/06/11 01:07:16;;;;;;;4.80;3.85;;;;;;;;;;5035803;28;20049;-68
2023/06/11 01:09:42;;;;;;;4.75;3.92;;;;;;;;;;5049717;28;20037;-67
2023/06/11 01:12:08;;;;;;;4.75;3.50;;;;;;;;;;5028783;28;20108;-69
2023/06/11 01:14:34;;;;;;;5.25;3.53;;;;;;;;;;5042104;28;20083;-69
2023/06/11 01:17:04;;;;;;;5.45;3.50;;;;;;;;;;5028745;28;20033;-66
2023/06/11 01:19:52;;;;;;;5.53;3.70;;;;;;;;;;5028160;28;20044;-65
2023/06/11 01:22:21;;;;;;;4.63;3.88;;;;;;;;;;5029942;28;20045;-69
2023/06/11 01:24:53;;;;;;;6.10;3.72;;;;;;;;;;5039009;28;20184;-69
2023/06/11 01:27:19;;;;;;;4.82;3.88;;;;;;;;;;5048963;28;20057;-70
2023/06/11 01:29:45;;;;;;;5.95;3.40;;;;;;;;;;5027580;28;20541;-67
2023/06/11 01:32:10;;;;;;;4.95;3.75;;;;;;;;;;5058223;23;22027;-69
2023/06/11 01:34:35;;;;;;;6.55;3.88;;;;;;;;;;5022619;28;20132;-68
2023/06/11 01:37:01;;;;;;;5.13;3.90;;;;;;;;;;5026698;28;20120;-68
2023/06/11 01:39:26;;;;;;;7.13;3.67;;;;;;;;;;5027563;28;20300;-68
2023/06/11 01:41:51;;;;;;;7.70;3.88;;;;;;;;;;5006626;28;20272;-67
2023/06/11 01:44:19;;;;;;;6.63;4.25;;;;;;;;;;4991139;28;20033;-68
2023/06/11 01:46:45;;;;;;;5.82;3.38;;;;;;;;;;5012063;28;20084;-67
2023/06/11 01:49:10;;;;;;;5.95;3.90;;;;;;;;;;5022017;28;20041;-68
2023/06/11 01:54:07;;;;;;;5.30;3.47;;;;;;;;;;5061298;28;20032;-63
2023/06/11 01:56:32;;;;;;;5.78;4.05;;;;;;;;;;5066470;28;20052;-65
2023/06/11 01:58:57;;;;;;;6.22;4.25;;;;;;;;;;5073366;28;20543;-67
2023/06/11 02:01:23;;;;;;;5.57;3.60;;;;;;;;;;5072779;28;20153;-62
2023/06/11 02:03:48;;;;;;;5.47;4.40;;;;;;;;;;5067575;28;20089;-63
2023/06/11 02:06:13;;;;;;;4.80;3.90;;;;;;;;;;5067111;28;20463;-63
2023/06/11 02:08:39;;;;;;;5.13;3.78;;;;;;;;;;5063966;28;20658;-65
2023/06/11 02:11:04;;;;;;;8.68;4.30;;;;;;;;;;5067409;28;20029;-65
2023/06/11 02:13:30;;;;;;;5.35;4.15;;;;;;;;;;5066145;28;20428;-67
2023/06/11 02:15:56;;;;;;;5.38;3.80;;;;;;;;;;5067999;28;20560;-65
2023/06/11 02:18:21;;;;;;;5.35;4.28;;;;;;;;;;5067938;28;20088;-66
2023/06/11 02:20:46;;;;;;;7.23;4.13;;;;;;;;;;5067121;28;20024;-67
2023/06/11 02:23:12;;;;;;;4.30;3.73;;;;;;;;;;5066983;28;20663;-68
2023/06/11 02:25:37;;;;;;;5.93;4.18;;;;;;;;;;5066957;28;20532;-67
2023/06/11 02:28:04;;;;;;;5.80;4.22;;;;;;;;;;5048998;28;20021;-60
2023/06/11 02:30:30;;;;;;;5.65;3.80;;;;;;;;;;5067665;28;20036;-63
2023/06/11 02:32:55;;;;;;;6.13;4.30;;;;;;;;;;5066034;28;20479;-62
2023/06/11 02:35:20;;;;;;;5.67;4.00;;;;;;;;;;5067922;28;20116;-65
2023/06/11 02:37:45;;;;;;;5.97;4.00;;;;;;;;;;5066632;28;20342;-63
2023/06/11 02:40:11;;;;;;;6.82;3.90;;;;;;;;;;5072765;28;20524;-63
2023/06/11 02:42:36;;;;;;;4.85;3.90;;;;;;;;;;5067881;28;20023;-67
2023/06/11 02:45:01;;;;;;;5.43;4.13;;;;;;;;;;5066302;28;20029;-67
2023/06/11 02:47:26;;;;;;;6.63;4.05;;;;;;;;;;5066342;28;20040;-64
2023/06/11 02:49:52;;;;;;;5.10;4.00;;;;;;;;;;5069859;28;20033;-63
2023/06/11 02:52:17;;;;;;;4.70;3.80;;;;;;;;;;5065580;28;20041;-67
2023/06/11 02:54:42;;;;;;;5.20;4.00;;;;;;;;;;5066113;28;20032;-66
2023/06/11 02:57:07;;;;;;;5.73;3.53;;;;;;;;;;5066012;28;20025;-66
2023/06/11 02:59:32;;;;;;;5.80;3.67;;;;;;;;;;5066898;28;20097;-66
2023/06/11 03:01:58;;;;;;;6.23;3.70;;;;;;;;;;5047544;28;20054;-64
2023/06/11 03:04:23;;;;;;;4.27;3.23;;;;;;;;;;5065556;28;20056;-66
2023/06/11 03:06:48;;;;;;;4.87;3.40;;;;;;;;;;5075439;28;20695;-67
2023/06/11 03:09:13;;;;;;;4.93;3.67;;;;;;;;;;5066414;28;20029;-67
2023/06/11 03:11:39;;;;;;;5.37;3.90;;;;;;;;;;5066133;28;20485;-62
2023/06/11 03:14:04;;;;;;;5.83;3.90;;;;;;;;;;5066608;28;20279;-63
2023/06/11 03:16:29;;;;;;;4.40;3.45;;;;;;;;;;5065762;28;20368;-64
2023/06/11 03:18:54;;;;;;;5.45;3.58;;;;;;;;;;5066220;28;20071;-63
2023/06/11 03:21:20;;;;;;;5.63;3.53;;;;;;;;;;5066352;28;20035;-62
2023/06/11 03:23:45;;;;;;;4.30;3.33;;;;;;;;;;5065463;28;20309;-63
2023/06/11 03:26:10;;;;;;;4.57;3.73;;;;;;;;;;5065470;28;20040;-63
2023/06/11 03:28:35;;;;;;;4.57;3.83;;;;;;;;;;5066063;28;20849;-64
2023/06/11 03:31:01;;;;;;;4.80;3.67;;;;;;;;;;5065788;28;20040;-66
2023/06/11 03:33:26;;;;;;;5.40;3.67;;;;;;;;;;5064970;28;20055;-66
2023/06/11 03:35:51;;;;;;;4.57;3.57;;;;;;;;;;5065066;28;20028;-66
2023/06/11 03:38:16;;;;;;;4.57;3.73;;;;;;;;;;5071631;28;20037;-66
2023/06/11 03:40:41;;;;;;;6.43;3.67;;;;;;;;;;5065264;28;20086;-67
2023/06/11 03:43:07;;;;;;;4.93;3.73;;;;;;;;;;5065348;28;20024;-61
2023/06/11 03:45:32;;;;;;;6.20;3.80;;;;;;;;;;5065566;28;20041;-64
2023/06/11 03:47:58;;;;;;;5.70;3.73;;;;;;;;;;5064759;28;20021;-68
2023/06/11 03:50:23;;;;;;;5.15;3.85;;;;;;;;;;5065356;28;20290;-68
2023/06/11 03:52:48;;;;;;;5.68;3.65;;;;;;;;;;5072238;28;20044;-67
2023/06/11 03:55:14;;;;;;;5.95;4.00;;;;;;;;;;5065721;28;20024;-67
2023/06/11 03:57:40;;;;;;;6.05;3.25;;;;;;;;;;5065204;28;20052;-68
2023/06/11 04:00:05;;;;;;;4.55;3.42;;;;;;;;;;5064821;28;20028;-67
2023/06/11 04:02:31;;;;;;;5.18;3.67;;;;;;;;;;5062995;28;20048;-64
2023/06/11 04:04:56;;;;;;;4.63;3.40;;;;;;;;;;5064528;28;20024;-68
2023/06/11 04:07:22;;;;;;;6.07;3.63;;;;;;;;;;5072770;28;20093;-68
2023/06/11 04:09:47;;;;;;;5.97;3.20;;;;;;;;;;5070654;28;20112;-65
2023/06/11 04:12:12;;;;;;;5.63;3.20;;;;;;;;;;5064003;28;20270;-64
2023/06/11 04:14:37;;;;;;;4.97;3.10;;;;;;;;;;5069571;28;20024;-66
2023/06/11 04:17:03;;;;;;;5.53;3.13;;;;;;;;;;5074576;28;20051;-67
2023/06/11 04:19:28;;;;;;;4.65;3.30;;;;;;;;;;5069768;28;20036;-63
2023/06/11 04:21:53;;;;;;;5.43;3.10;;;;;;;;;;5057338;28;20537;-63
2023/06/11 04:24:18;;;;;;;4.87;3.23;;;;;;;;;;5064078;28;20532;-65
2023/06/11 04:26:44;;;;;;;4.37;3.40;;;;;;;;;;5064697;28;20734;-67
2023/06/11 04:29:09;;;;;;;8.13;3.47;;;;;;;;;;5063809;28;20321;-64
2023/06/11 04:31:34;;;;;;;4.30;3.40;;;;;;;;;;5064387;28;20032;-65
2023/06/11 04:34:06;;;;;;;5.10;3.30;;;;;;;;;;5075720;28;20818;-65
2023/06/11 04:36:32;;;;;;;5.78;3.55;;;;;;;;;;5061667;28;20040;-64
2023/06/11 04:39:02;;;;;;;6.33;3.10;;;;;;;;;;5067247;28;20029;-64
2023/06/11 04:41:29;;;;;;;4.60;3.35;;;;;;;;;;5069176;28;20298;-61
2023/06/11 04:43:54;;;;;;;5.40;3.30;;;;;;;;;;5068336;28;20027;-65
2023/06/11 04:46:20;;;;;;;5.32;3.35;;;;;;;;;;5072947;28;20036;-65
2023/06/11 04:48:48;;;;;;;4.32;3.30;;;;;;;;;;5037070;28;20055;-61
2023/06/11 04:51:16;;;;;;;4.75;3.38;;;;;;;;;;5048195;28;20098;-64
2023/06/11 04:53:42;;;;;;;6.70;3.17;;;;;;;;;;5041247;28;20512;-63
2023/06/11 04:56:08;;;;;;;4.32;3.45;;;;;;;;;;5055682;28;20028;-63
2023/06/11 04:58:33;;;;;;;5.87;3.70;;;;;;;;;;5055375;28;20155;-65
2023/06/11 05:00:58;;;;;;;5.90;3.53;;;;;;;;;;5056878;28;20812;-64
2023/06/11 05:03:36;;;;;;;4.72;3.38;;;;;;;;;;5060067;28;20041;-62
2023/06/11 05:06:02;;;;;;;7.95;3.92;;;;;;;;;;5058434;28;20151;-63
2023/06/11 05:08:28;;;;;;;5.05;3.22;;;;;;;;;;5057705;28;20080;-64
2023/06/11 05:10:54;;;;;;;4.72;3.47;;;;;;;;;;5056051;28;20143;-63
2023/06/11 05:13:24;;;;;;;5.22;3.58;;;;;;;;;;5042505;28;20009;-64
2023/06/11 05:15:53;;;;;;;6.78;3.35;;;;;;;;;;5059324;28;20021;-61
2023/06/11 05:18:18;;;;;;;4.90;3.50;;;;;;;;;;5059669;28;20107;-63
2023/06/11 05:20:43;;;;;;;6.20;3.40;;;;;;;;;;5071667;28;20023;-63
2023/06/11 05:23:10;;;;;;;6.03;3.40;;;;;;;;;;5069442;28;20017;-63
2023/06/11 05:25:35;;;;;;;5.47;3.70;;;;;;;;;;5070937;28;20048;-59
2023/06/11 05:28:01;;;;;;;7.45;3.80;;;;;;;;;;5070797;28;20049;-60
2023/06/11 05:30:26;;;;;;;6.22;3.50;;;;;;;;;;5068361;28;20173;-59
2023/06/11 05:32:53;;;;;;;5.10;3.53;;;;;;;;;;5072764;28;20004;-62
2023/06/11 05:35:18;;;;;;;5.75;3.72;;;;;;;;;;5072716;28;20062;-60
2023/06/11 05:37:44;;;;;;;8.38;4.55;;;;;;;;;;5068372;28;20013;-59
2023/06/11 05:40:11;;;;;;;6.28;4.03;;;;;;;;;;5066220;28;20108;-63
2023/06/11 05:42:36;;;;;;;7.47;4.25;;;;;;;;;;5081242;28;20052;-61
2023/06/11 05:45:02;;;;;;;7.05;4.22;;;;;;;;;;5079872;28;20028;-61
2023/06/11 05:47:27;;;;;;;6.68;3.40;;;;;;;;;;5061798;28;20049;-63
2023/06/11 05:49:52;;;;;;;7.68;4.90;;;;;;;;;;5063170;28;20051;-61
2023/06/11 05:52:17;;;;;;;6.67;4.27;;;;;;;;;;5067919;28;22097;-63
2023/06/11 05:54:43;;;;;;;6.47;3.70;;;;;;;;;;5069488;28;20271;-62
2023/06/11 05:57:21;;;;;;;6.88;3.55;;;;;;;;;;5058543;28;20318;-58
2023/06/11 05:59:47;;;;;;;5.15;3.40;;;;;;;;;;5061961;28;20037;-60
2023/06/11 06:02:12;;;;;;;5.35;3.50;;;;;;;;;;5039943;28;20489;-59
2023/06/11 06:04:37;;;;;;;5.13;3.38;;;;;;;;;;5081871;28;20790;-63
2023/06/11 06:07:03;;;;;;;6.30;3.87;;;;;;;;;;5058082;28;20048;-60
2023/06/11 06:09:28;;;;;;;5.43;3.40;;;;;;;;;;5062259;28;21386;-58
2023/06/11 06:11:53;;;;;;;5.70;3.45;;;;;;;;;;5041336;28;20495;-59
2023/06/11 06:14:18;;;;;;;6.30;3.40;;;;;;;;;;5043087;28;20516;-58
2023/06/11 06:16:44;;;;;;;6.63;3.70;;;;;;;;;;5081014;28;20287;-59
2023/06/11 06:19:09;;;;;;;7.72;3.58;;;;;;;;;;5058917;28;21947;-59
2023/06/11 06:21:34;;;;;;;5.07;3.20;;;;;;;;;;5057376;28;20033;-62
2023/06/11 06:24:00;;;;;;;4.60;3.27;;;;;;;;;;5065477;28;20076;-61
2023/06/11 06:26:25;;;;;;;6.85;3.28;;;;;;;;;;5066978;28;20328;-58
2023/06/11 06:28:52;;;;;;;5.03;3.07;;;;;;;;;;5064531;28;20037;-61
2023/06/11 06:31:18;;;;;;;5.53;3.40;;;;;;;;;;5069168;28;20298;-60
2023/06/11 06:33:43;;;;;;;4.60;3.25;;;;;;;;;;5043148;28;20064;-59
2023/06/11 06:36:08;;;;;;;4.60;3.50;;;;;;;;;;5067082;28;20039;-60
2023/06/11 06:38:35;;;;;;;7.80;4.00;;;;;;;;;;5060018;28;20037;-58
2023/06/11 06:41:00;;;;;;;4.57;3.47;;;;;;;;;;5069072;28;20314;-57
2023/06/11 06:43:26;;;;;;;5.75;3.72;;;;;;;;;;5047652;28;20033;-59
2023/06/11 06:45:51;;;;;;;7.13;3.47;;;;;;;;;;5061008;28;20170;-63
2023/06/11 06:48:17;;;;;;;6.03;3.43;;;;;;;;;;5067989;28;20355;-60
2023/06/11 06:50:42;;;;;;;5.75;3.80;;;;;;;;;;5062833;28;20033;-59
2023/06/11 06:53:08;;;;;;;5.68;3.60;;;;;;;;;;5029021;28;20038;-65
2023/06/11 06:55:33;;;;;;;5.40;3.33;;;;;;;;;;5026453;28;20045;-61
2023/06/11 06:57:59;;;;;;;6.88;3.97;;;;;;;;;;5019494;28;20044;-59
2023/06/11 07:00:24;;;;;;;7.07;3.77;;;;;;;;;;5022575;28;20943;-63
2023/06/11 07:02:49;;;;;;;7.40;4.10;;;;;;;;;;5024381;28;20320;-60
2023/06/11 07:05:14;;;;;;;5.93;3.83;;;;;;;;;;5020494;28;20299;-61
2023/06/11 07:07:40;;;;;;;5.83;3.83;;;;;;;;;;5021709;28;20292;-59
2023/06/11 07:10:05;;;;;;;5.72;3.88;;;;;;;;;;5022314;28;20054;-60
2023/06/11 07:12:31;;;;;;;6.40;3.58;;;;;;;;;;5022577;28;20037;-60
2023/06/11 07:14:56;;;;;;;6.50;3.90;;;;;;;;;;5021879;28;20049;-59
2023/06/11 07:17:22;;;;;;;5.23;3.37;;;;;;;;;;5020436;28;20332;-60
2023/06/11 07:19:48;;;;;;;6.53;3.58;;;;;;;;;;5018565;28;20300;-61
2023/06/11 07:22:13;;;;;;;7.63;3.83;;;;;;;;;;5013121;28;20095;-60
2023/06/11 07:24:39;;;;;;;6.17;4.10;;;;;;;;;;5010876;28;20323;-59
2023/06/11 07:27:05;;;;;;;5.47;3.95;;;;;;;;;;5011119;28;20053;-60
2023/06/11 07:29:30;;;;;;;5.43;4.03;;;;;;;;;;5009674;28;20069;-59
2023/06/11 07:31:55;;;;;;;6.75;4.45;;;;;;;;;;5010655;28;20025;-59
2023/06/11 07:34:20;;;;;;;6.27;4.03;;;;;;;;;;5013155;28;20547;-60
2023/06/11 07:36:46;;;;;;;5.68;3.42;;;;;;;;;;5012540;28;22084;-59
2023/06/11 07:39:11;;;;;;;6.57;4.00;;;;;;;;;;5014978;28;20230;-60
2023/06/11 07:41:36;;;;;;;6.60;3.72;;;;;;;;;;5016352;28;20381;-60
2023/06/11 07:44:02;;;;;;;7.07;3.65;;;;;;;;;;5049305;28;20120;-63
2023/06/11 07:46:27;;;;;;;7.67;4.03;;;;;;;;;;5020077;28;20053;-60
2023/06/11 07:48:52;;;;;;;4.90;3.55;;;;;;;;;;5015643;28;20292;-62
2023/06/11 07:51:20;;;;;;;4.97;3.42;;;;;;;;;;5025079;28;20111;-60
2023/06/11 07:53:45;;;;;;;5.13;3.55;;;;;;;;;;5051279;28;20058;-61
2023/06/11 07:56:11;;;;;;;8.40;3.97;;;;;;;;;;5058484;28;20119;-62
2023/06/11 07:58:36;;;;;;;8.50;4.07;;;;;;;;;;5065050;28;20446;-64
2023/06/11 08:01:01;;;;;;;6.77;4.47;;;;;;;;;;5080669;28;20386;-64
2023/06/11 08:03:26;;;;;;;6.53;3.90;;;;;;;;;;5096062;28;20368;-66
2023/06/11 08:05:51;;;;;;;5.93;3.67;;;;;;;;;;5072486;28;20298;-60
2023/06/11 08:08:17;;;;;;;6.63;3.57;;;;;;;;;;5080543;28;20282;-65
2023/06/11 08:10:45;;;;;;;7.50;3.90;;;;;;;;;;5073875;28;20051;-60
2023/06/11 08:13:10;;;;;;;7.05;3.85;;;;;;;;;;5054239;28;20282;-63
2023/06/11 08:15:35;;;;;;;6.57;3.90;;;;;;;;;;5072453;28;20020;-62
2023/06/11 08:18:01;;;;;;;7.07;4.23;;;;;;;;;;5071217;28;20039;-62
2023/06/11 08:20:26;;;;;;;5.47;3.88;;;;;;;;;;5066604;28;20127;-64
2023/06/11 08:22:52;;;;;;;5.15;3.58;;;;;;;;;;5071673;28;20063;-61
2023/06/11 08:25:17;;;;;;;5.63;3.60;;;;;;;;;;5088448;28;20066;-64
2023/06/11 08:27:42;;;;;;;7.77;3.60;;;;;;;;;;5072237;28;20036;-61
2023/06/11 08:30:08;;;;;;;6.33;3.80;;;;;;;;;;5070775;28;20825;-65
2023/06/11 08:32:33;;;;;;;5.25;3.70;;;;;;;;;;5070189;28;20385;-59
2023/06/11 08:34:59;;;;;;;6.20;3.97;;;;;;;;;;5070191;28;20170;-65
2023/06/11 08:37:24;;;;;;;5.53;3.47;;;;;;;;;;5070404;28;20044;-65
2023/06/11 08:39:50;;;;;;;5.35;4.20;;;;;;;;;;5053567;28;20275;-65
2023/06/11 08:42:15;;;;;;;8.90;3.73;;;;;;;;;;5072193;28;20086;-59
2023/06/11 08:44:40;;;;;;;4.67;3.50;;;;;;;;;;5081802;28;20353;-60
2023/06/11 08:47:05;;;;;;;5.93;4.00;;;;;;;;;;5056892;28;20352;-61
2023/06/11 08:49:31;;;;;;;4.85;3.58;;;;;;;;;;5071151;28;20282;-62
2023/06/11 08:52:02;;;;;;;5.95;4.20;;;;;;;;;;5076075;28;20111;-61
2023/06/11 08:54:27;;;;;;;5.13;3.67;;;;;;;;;;5074153;28;20474;-64
2023/06/11 08:56:53;;;;;;;5.50;4.30;;;;;;;;;;5060404;28;20029;-64
2023/06/11 08:59:19;;;;;;;5.20;3.90;;;;;;;;;;5074731;28;20032;-65
2023/06/11 09:01:50;;;;;;;6.80;4.15;;;;;;;;;;5081550;28;20039;-63
2023/06/11 09:04:16;;;;;;;5.53;3.72;;;;;;;;;;5065263;28;20425;-61
2023/06/11 09:06:57;;;;;;;9.07;4.53;;;;;;;;;;5071396;28;20058;-64
2023/06/11 09:09:22;;;;;;;6.68;3.78;;;;;;;;;;5064402;28;20040;-66
2023/06/11 09:11:48;;;;;;;6.53;4.10;;;;;;;;;;5064152;28;20024;-65
2023/06/11 09:14:13;;;;;;;5.70;3.78;;;;;;;;;;5065370;28;20267;-62
2023/06/11 09:16:42;;;;;;;4.60;3.38;;;;;;;;;;5064162;28;20526;-65
2023/06/11 09:19:25;;;;;;;6.05;4.05;;;;;;;;;;5064188;28;20029;-64
2023/06/11 09:21:51;;;;;;;8.32;4.07;;;;;;;;;;5062363;28;20037;-65
2023/06/11 09:24:17;;;;;;;7.63;4.15;;;;;;;;;;5069587;28;20144;-65
2023/06/11 09:26:48;;;;;;;5.85;3.92;;;;;;;;;;5068356;28;20127;-60
2023/06/11 09:29:14;;;;;;;6.15;3.85;;;;;;;;;;5068241;28;20016;-65
2023/06/11 09:31:39;;;;;;;5.22;3.70;;;;;;;;;;5067663;28;20134;-66
2023/06/11 09:34:06;;;;;;;7.35;4.10;;;;;;;;;;5067618;28;20037;-64
2023/06/11 09:36:31;;;;;;;5.65;3.83;;;;;;;;;;5068196;28;20063;-63
2023/06/11 09:38:56;;;;;;;7.23;4.00;;;;;;;;;;5075657;28;20032;-65
2023/06/11 09:41:21;;;;;;;6.63;4.20;;;;;;;;;;5067584;28;20274;-64
2023/06/11 09:43:50;;;;;;;6.90;4.03;;;;;;;;;;5067494;28;20358;-66
2023/06/11 09:46:15;;;;;;;6.78;4.20;;;;;;;;;;5067601;28;20407;-60
2023/06/11 09:48:40;;;;;;;8.47;4.10;;;;;;;;;;5049946;28;20066;-62
2023/06/11 09:51:05;;;;;;;6.70;3.72;;;;;;;;;;5067212;28;20036;-64
2023/06/11 09:53:31;;;;;;;7.30;4.00;;;;;;;;;;5068431;28;20097;-62
2023/06/11 09:55:57;;;;;;;5.75;4.00;;;;;;;;;;5056238;28;20056;-61
2023/06/11 09:58:23;;;;;;;5.07;3.95;;;;;;;;;;5062212;28;20496;-66
2023/06/11 10:00:52;;;;;;;7.40;4.15;;;;;;;;;;5066754;28;20778;-65
2023/06/11 10:03:18;;;;;;;6.65;4.18;;;;;;;;;;5055858;28;20029;-61
2023/06/11 10:05:43;;;;;;;6.95;4.00;;;;;;;;;;5055628;28;20126;-60
2023/06/11 10:08:09;;;;;;;5.40;4.05;;;;;;;;;;5064276;28;20062;-64
2023/06/11 10:10:35;;;;;;;7.70;4.20;;;;;;;;;;5066864;28;20463;-62
2023/06/11 10:13:00;;;;;;;6.90;4.07;;;;;;;;;;5065501;28;20348;-63
2023/06/11 10:15:25;;;;;;;6.57;3.93;;;;;;;;;;5067761;28;20451;-64
2023/06/11 10:17:52;;;;;;;5.75;3.80;;;;;;;;;;5067644;28;20005;-62
2023/06/11 10:20:18;;;;;;;7.53;3.75;;;;;;;;;;5064723;28;20016;-64
2023/06/11 10:22:43;;;;;;;6.85;4.25;;;;;;;;;;5066094;28;20082;-64
2023/06/11 10:25:08;;;;;;;7.43;4.30;;;;;;;;;;5066409;28;20035;-65
2023/06/11 10:27:37;;;;;;;7.50;4.30;;;;;;;;;;5062883;28;20279;-63
2023/06/11 10:30:02;;;;;;;5.47;4.00;;;;;;;;;;5064602;28;20668;-63
2023/06/11 10:32:28;;;;;;;7.32;4.40;;;;;;;;;;5065507;28;20093;-65
2023/06/11 10:34:54;;;;;;;6.88;3.92;;;;;;;;;;5048698;28;20012;-64
2023/06/11 10:37:46;;;;;;;5.88;4.28;;;;;;;;;;5068309;28;20031;-62
2023/06/11 10:40:11;;;;;;;6.63;4.18;;;;;;;;;;5062877;28;20044;-64
2023/06/11 10:42:38;;;;;;;6.10;4.40;;;;;;;;;;5070335;28;20032;-65
2023/06/11 10:45:10;;;;;;;6.43;4.03;;;;;;;;;;5065728;28;20060;-66
2023/06/11 10:47:42;;;;;;;6.82;4.40;;;;;;;;;;5048551;28;20127;-66
2023/06/11 10:50:07;;;;;;;6.10;3.78;;;;;;;;;;5068993;28;20044;-61
2023/06/11 10:52:43;;;;;;;6.72;4.03;;;;;;;;;;5067697;28;20032;-65
2023/06/11 10:55:09;;;;;;;7.93;5.00;;;;;;;;;;5066139;28;20035;-64
2023/06/11 10:57:34;;;;;;;5.95;4.28;;;;;;;;;;5047483;28;20025;-65
2023/06/11 11:00:01;;;;;;;5.72;4.40;;;;;;;;;;5065157;28;20064;-61
2023/06/11 11:02:26;;;;;;;7.38;4.70;;;;;;;;;;5065950;28;20125;-62
2023/06/11 11:04:52;;;;;;;6.23;4.60;;;;;;;;;;5061350;28;20127;-62
2023/06/11 11:07:18;;;;;;;6.95;4.35;;;;;;;;;;5065085;28;20287;-66
2023/06/11 11:09:43;;;;;;;6.75;4.60;;;;;;;;;;5063432;28;20040;-66
2023/06/11 11:12:08;;;;;;;5.47;3.87;;;;;;;;;;5066065;28;20470;-66
2023/06/11 11:14:33;;;;;;;8.63;4.22;;;;;;;;;;5063956;28;20290;-62
2023/06/11 11:17:00;;;;;;;5.45;3.80;;;;;;;;;;5065403;28;20036;-67
2023/06/11 11:19:26;;;;;;;5.30;3.85;;;;;;;;;;5065492;28;20406;-63
2023/06/11 11:21:51;;;;;;;5.22;3.90;;;;;;;;;;5065786;28;20100;-62
2023/06/11 11:24:17;;;;;;;6.35;3.97;;;;;;;;;;5065803;28;20024;-60
2023/06/11 11:26:42;;;;;;;7.07;4.10;;;;;;;;;;5063409;28;20032;-61
2023/06/11 11:29:07;;;;;;;5.60;4.13;;;;;;;;;;5064073;28;20438;-61
2023/06/11 11:31:32;;;;;;;5.50;4.25;;;;;;;;;;5052700;28;20491;-66
2023/06/11 11:33:58;;;;;;;7.60;3.90;;;;;;;;;;5048081;28;20047;-62
2023/06/11 11:36:23;;;;;;;6.97;3.90;;;;;;;;;;5067635;28;20070;-65
2023/06/11 11:38:48;;;;;;;9.10;4.17;;;;;;;;;;5064183;28;20074;-63
2023/06/11 11:41:13;;;;;;;6.57;3.90;;;;;;;;;;5047722;28;20269;-66
2023/06/11 11:43:42;;;;;;;4.80;3.67;;;;;;;;;;5048809;28;20290;-65
2023/06/11 11:46:17;;;;;;;6.53;3.30;;;;;;;;;;5065015;28;20302;-66
2023/06/11 11:48:42;;;;;;;5.35;3.38;;;;;;;;;;5066745;28;20045;-65
2023/06/11 11:51:07;;;;;;;5.80;3.17;;;;;;;;;;5067447;28;20053;-65
2023/06/11 11:53:33;;;;;;;5.38;3.60;;;;;;;;;;5050347;28;20068;-62
2023/06/11 11:55:58;;;;;;;5.20;2.90;;;;;;;;;;5071990;28;20031;-64
2023/06/11 11:58:23;;;;;;;4.97;3.47;;;;;;;;;;5053882;28;20279;-65
2023/06/11 12:00:52;;;;;;;4.10;3.07;;;;;;;;;;5070717;28;20328;-63
2023/06/11 12:03:18;;;;;;;5.32;2.90;;;;;;;;;;5072159;28;20673;-65
2023/06/11 12:05:43;;;;;;;4.95;2.92;;;;;;;;;;5069026;28;20036;-66
2023/06/11 12:08:08;;;;;;;4.20;2.93;;;;;;;;;;5073859;28;20487;-64
2023/06/11 12:10:34;;;;;;;5.85;2.92;;;;;;;;;;5072333;28;20266;-64
2023/06/11 12:12:59;;;;;;;6.90;3.40;;;;;;;;;;5070648;28;20032;-67
2023/06/11 12:15:24;;;;;;;4.18;2.78;;;;;;;;;;5053238;28;20507;-63
2023/06/11 12:17:51;;;;;;;4.88;2.80;;;;;;;;;;5060206;28;20020;-65
2023/06/11 12:20:16;;;;;;;3.92;2.45;;;;;;;;;;5101783;28;20077;-60
2023/06/11 12:22:42;;;;;;;5.60;2.23;;;;;;;;;;5065183;28;20033;-63
2023/06/11 12:25:07;;;;;;;3.50;2.77;;;;;;;;;;5079955;28;20357;-64
2023/06/11 12:27:33;;;;;;;6.47;2.72;;;;;;;;;;5073149;28;20306;-65
2023/06/11 12:29:58;;;;;;;6.60;2.43;;;;;;;;;;5065680;28;20110;-63
2023/06/11 12:32:25;;;;;;;5.28;2.15;;;;;;;;;;5085466;28;20768;-63
2023/06/11 12:34:50;;;;;;;5.28;2.50;;;;;;;;;;5062361;28;20032;-65
2023/06/11 12:37:16;;;;;;;4.25;2.58;;;;;;;;;;5072301;28;20058;-58
2023/06/11 12:39:43;;;;;;;4.72;2.90;;;;;;;;;;5060014;28;20679;-60
2023/06/11 12:42:10;;;;;;;5.95;2.63;;;;;;;;;;5063855;28;20454;-65
2023/06/11 12:44:35;;;;;;;4.97;3.00;;;;;;;;;;5067243;28;20028;-62
2023/06/11 12:47:00;;;;;;;5.13;2.50;;;;;;;;;;5066957;28;20052;-62
2023/06/11 12:49:28;;;;;;;4.53;2.90;;;;;;;;;;5073198;28;20819;-62
2023/06/11 12:51:53;;;;;;;3.80;2.45;;;;;;;;;;5072466;28;20033;-64
2023/06/11 12:54:23;;;;;;;3.65;2.40;;;;;;;;;;5048717;28;20802;-62
2023/06/11 12:56:48;;;;;;;5.57;2.72;;;;;;;;;;5079132;28;20028;-66
2023/06/11 12:59:15;;;;;;;3.60;2.60;;;;;;;;;;5070138;28;20109;-63
2023/06/11 13:01:40;;;;;;;3.78;2.58;;;;;;;;;;5060964;28;20561;-62
2023/06/11 13:04:05;;;;;;;3.43;2.50;;;;;;;;;;5078059;28;20032;-62
2023/06/11 13:06:30;;;;;;;4.97;2.50;;;;;;;;;;5073206;28;20655;-62
2023/06/11 13:08:56;;;;;;;5.82;2.67;;;;;;;;;;5070385;28;20282;-62
2023/06/11 13:11:21;;;;;;;4.05;2.70;;;;;;;;;;5071421;28;20521;-59
2023/06/11 13:13:47;;;;;;;4.30;2.70;;;;;;;;;;5077735;28;20021;-60
2023/06/11 13:16:13;;;;;;;5.00;2.83;;;;;;;;;;5069002;28;20428;-61
2023/06/11 13:18:38;;;;;;;3.60;2.80;;;;;;;;;;5069085;28;20412;-62
2023/06/11 13:21:05;;;;;;;6.88;2.80;;;;;;;;;;5049476;28;20097;-62
2023/06/11 13:23:31;;;;;;;3.38;2.45;;;;;;;;;;5071709;28;20036;-60
2023/06/11 13:25:56;;;;;;;4.22;2.60;;;;;;;;;;5073409;28;20079;-61
2023/06/11 13:28:22;;;;;;;4.50;2.50;;;;;;;;;;5081356;28;20500;-61
2023/06/11 13:30:47;;;;;;;4.18;2.92;;;;;;;;;;5067508;28;20032;-64
2023/06/11 13:33:12;;;;;;;4.13;2.70;;;;;;;;;;5068608;28;20504;-63
2023/06/11 13:35:37;;;;;;;3.97;2.70;;;;;;;;;;5050035;28;20262;-61
2023/06/11 13:38:03;;;;;;;5.10;2.90;;;;;;;;;;5068429;28;20059;-62
2023/06/11 13:40:28;;;;;;;3.67;2.63;;;;;;;;;;5079757;28;20036;-62
2023/06/11 13:42:53;;;;;;;4.25;2.90;;;;;;;;;;5067652;28;20063;-61
2023/06/11 13:45:19;;;;;;;3.90;2.60;;;;;;;;;;5051759;28;20036;-62
2023/06/11 13:47:44;;;;;;;4.78;2.72;;;;;;;;;;5067661;28;20033;-61
2023/06/11 13:50:09;;;;;;;4.57;2.70;;;;;;;;;;5068192;28;20076;-61
2023/06/11 13:52:34;;;;;;;4.43;2.50;;;;;;;;;;5079489;28;20115;-60
2023/06/11 13:55:00;;;;;;;4.20;2.40;;;;;;;;;;5034415;28;20135;-60
2023/06/11 13:57:27;;;;;;;4.57;2.60;;;;;;;;;;5052501;28;20045;-65
2023/06/11 13:59:53;;;;;;;3.72;2.50;;;;;;;;;;5037144;28;20288;-62
2023/06/11 14:02:19;;;;;;;5.47;2.70;;;;;;;;;;5012648;28;20728;-66
2023/06/11 14:04:44;;;;;;;4.57;2.55;;;;;;;;;;5026590;28;20036;-59
2023/06/11 14:07:10;;;;;;;5.33;2.60;;;;;;;;;;5012624;28;20034;-62
2023/06/11 14:09:35;;;;;;;4.57;2.50;;;;;;;;;;5011777;28;20919;-65
2023/06/11 14:12:00;;;;;;;3.90;2.63;;;;;;;;;;5014313;28;20064;-63
2023/06/11 14:14:29;;;;;;;3.77;2.30;;;;;;;;;;5028131;28;20072;-64
2023/06/11 14:16:55;;;;;;;5.70;2.83;;;;;;;;;;5027600;28;20329;-65
2023/06/11 14:19:20;;;;;;;3.38;2.30;;;;;;;;;;5025434;28;20893;-65
2023/06/11 14:21:46;;;;;;;4.20;2.50;;;;;;;;;;5022291;28;20030;-63
2023/06/11 14:24:11;;;;;;;3.80;2.10;;;;;;;;;;5015608;28;21047;-63
2023/06/11 14:26:36;;;;;;;4.85;2.47;;;;;;;;;;5026778;28;20301;-64
2023/06/11 14:29:02;;;;;;;4.97;2.40;;;;;;;;;;5012290;28;20495;-63
2023/06/11 14:31:27;;;;;;;5.03;2.75;;;;;;;;;;5018763;28;20120;-61
2023/06/11 14:33:52;;;;;;;3.77;2.47;;;;;;;;;;5020003;28;20030;-61
2023/06/11 14:36:17;;;;;;;4.17;2.67;;;;;;;;;;5013062;28;20075;-61
2023/06/11 14:38:43;;;;;;;4.03;2.60;;;;;;;;;;5036097;28;20280;-61